Time;durP1;ratioP1;P1;durP2;ratioP2;P2;SDS_P1;SDS_P2;PMS_P1;PMS_P2;Temp;Humidity;BMP_temperature;BMP_pressure;BME280_temperature;BME280_humidity;BME280_pressure;Samples;Min_cycle;Max_cycle;Signal;HPM_P1;HPM_P2
2023/10/29 00:00:12;;;;;;;0.95;0.50;;;10.20;99.90;;;;;;5083220;28;20086;-83
2023/10/29 00:02:38;;;;;;;0.40;0.40;;;10.30;99.90;;;;;;5134278;27;20051;-83
2023/10/29 00:05:04;;;;;;;0.50;0.50;;;10.30;99.90;;;;;;5117334;28;20522;-83
2023/10/29 00:07:29;;;;;;;1.85;1.08;;;10.30;99.90;;;;;;5100945;28;20048;-83
2023/10/29 00:09:55;;;;;;;0.63;0.50;;;10.30;99.90;;;;;;5118342;28;20084;-83
2023/10/29 00:12:21;;;;;;;;;;;10.30;99.90;;;;;;5100218;28;20513;-83
2023/10/29 00:14:47;;;;;;;0.40;0.40;;;10.40;99.90;;;;;;5083585;28;19920;-82
2023/10/29 00:17:13;;;;;;;0.30;0.30;;;10.30;99.90;;;;;;5083281;28;20050;-83
2023/10/29 00:19:39;;;;;;;0.40;0.40;;;10.40;99.90;;;;;;5083307;28;20047;-84
2023/10/29 00:22:05;;;;;;;0.38;0.38;;;10.40;99.90;;;;;;5100322;28;20039;-84
2023/10/29 00:24:30;;;;;;;2.30;1.20;;;10.40;99.90;;;;;;5135495;27;20366;-84
2023/10/29 00:26:56;;;;;;;0.30;0.30;;;10.40;99.90;;;;;;5117256;28;20038;-84
2023/10/29 00:29:22;;;;;;;0.47;0.47;;;10.40;99.90;;;;;;5117568;28;20047;-84
2023/10/29 00:31:49;;;;;;;2.05;1.95;;;10.60;99.90;;;;;;5100355;28;20051;-84
2023/10/29 00:34:15;;;;;;;0.40;0.40;;;10.40;99.90;;;;;;5083152;28;20044;-84
2023/10/29 00:36:41;;;;;;;0.70;0.70;;;10.40;99.90;;;;;;5081943;28;20044;-83
2023/10/29 00:39:07;;;;;;;0.32;0.30;;;10.50;99.90;;;;;;5103054;28;20576;-82
2023/10/29 00:41:33;;;;;;;0.38;0.38;;;10.50;99.90;;;;;;5122130;28;20052;-83
2023/10/29 00:43:59;;;;;;;0.35;0.35;;;10.50;99.90;;;;;;5137597;27;20048;-83
2023/10/29 00:46:25;;;;;;;0.30;0.30;;;10.50;99.90;;;;;;5117769;28;20039;-85
2023/10/29 00:48:54;;;;;;;0.30;0.30;;;10.60;99.90;;;;;;5100526;28;20425;-85
2023/10/29 00:51:20;;;;;;;0.30;0.30;;;10.60;99.90;;;;;;5086243;28;20043;-84
2023/10/29 00:53:46;;;;;;;1.08;0.57;;;10.50;99.90;;;;;;5133989;27;20039;-85
2023/10/29 00:56:13;;;;;;;0.40;0.40;;;10.60;99.90;;;;;;5116210;28;20067;-85
2023/10/29 00:58:40;;;;;;;0.52;0.52;;;;;;;;;;5116080;28;20093;-88
2023/10/29 01:01:06;;;;;;;0.68;0.68;;;10.80;99.90;;;;;;5082442;28;20044;-86
2023/10/29 01:03:32;;;;;;;0.50;0.50;;;10.50;99.90;;;;;;5116516;28;20161;-85
2023/10/29 01:06:00;;;;;;;0.40;0.40;;;10.80;99.90;;;;;;5082679;28;20040;-85
2023/10/29 01:08:26;;;;;;;0.30;0.30;;;10.50;99.90;;;;;;5081716;28;20505;-85
2023/10/29 01:10:52;;;;;;;;;;;10.50;99.90;;;;;;5117028;28;20043;-85
2023/10/29 01:13:20;;;;;;;0.47;0.47;;;11.10;99.90;;;;;;5083357;28;19924;-85
2023/10/29 01:15:49;;;;;;;0.28;0.28;;;10.60;99.90;;;;;;5082129;28;20046;-86
2023/10/29 01:18:14;;;;;;;0.40;0.40;;;10.80;99.90;;;;;;5098974;28;20047;-85
2023/10/29 01:20:40;;;;;;;0.40;0.40;;;10.60;99.90;;;;;;5116314;28;20046;-87
2023/10/29 01:23:06;;;;;;;0.30;0.30;;;10.60;99.90;;;;;;5116539;28;20047;-86
2023/10/29 01:25:35;;;;;;;0.40;0.40;;;;;;;;;;5116016;28;20054;-84
2023/10/29 01:28:04;;;;;;;;;;;10.70;99.90;;;;;;5083378;28;20070;-85
2023/10/29 01:30:30;;;;;;;1.00;0.98;;;9.40;99.90;;;;;;5083412;28;19978;-85
2023/10/29 01:32:56;;;;;;;1.55;1.45;;;10.70;99.90;;;;;;5116769;28;20351;-85
2023/10/29 01:35:22;;;;;;;0.20;0.20;;;10.80;99.90;;;;;;5115547;28;20047;-84
2023/10/29 01:37:48;;;;;;;0.55;0.55;;;10.90;99.90;;;;;;5116624;28;20058;-84
2023/10/29 01:40:14;;;;;;;0.75;0.75;;;10.90;99.90;;;;;;5116630;28;20460;-86
2023/10/29 01:42:39;;;;;;;0.40;0.40;;;10.80;99.90;;;;;;5115405;28;20080;-84
2023/10/29 01:45:05;;;;;;;0.40;0.40;;;11.10;99.90;;;;;;5116536;28;20044;-83
2023/10/29 01:47:31;;;;;;;0.40;0.40;;;;;;;;;;5081814;28;20454;-84
2023/10/29 01:49:57;;;;;;;0.43;0.43;;;10.80;99.90;;;;;;5081679;28;20092;-84
2023/10/29 01:52:23;;;;;;;0.85;0.85;;;10.90;99.90;;;;;;5115710;28;20466;-83
2023/10/29 01:54:49;;;;;;;0.40;0.40;;;10.80;99.90;;;;;;5081165;28;20123;-86
2023/10/29 01:57:14;;;;;;;0.40;0.40;;;11.00;99.90;;;;;;5097524;28;20042;-84
2023/10/29 01:59:40;;;;;;;1.02;1.02;;;10.90;99.90;;;;;;5132382;27;20055;-84
2023/10/29 02:02:06;;;;;;;0.30;0.30;;;10.90;99.90;;;;;;5081917;28;20084;-85
2023/10/29 02:04:34;;;;;;;0.75;0.75;;;11.00;99.90;;;;;;5081665;28;20059;-84
2023/10/29 02:07:00;;;;;;;0.35;0.35;;;10.90;99.90;;;;;;5115421;28;20378;-84
2023/10/29 02:09:26;;;;;;;0.38;0.38;;;11.10;99.90;;;;;;5081616;28;20045;-84
2023/10/29 02:11:51;;;;;;;0.47;0.35;;;11.10;99.90;;;;;;5098233;28;20044;-84
2023/10/29 02:14:17;;;;;;;0.20;0.20;;;11.20;99.90;;;;;;5115449;28;20043;-84
2023/10/29 02:16:43;;;;;;;0.22;0.22;;;11.20;99.90;;;;;;5081113;28;20126;-82
2023/10/29 02:19:09;;;;;;;0.40;0.40;;;11.20;99.90;;;;;;5137826;27;20047;-85
2023/10/29 02:21:35;;;;;;;1.25;1.15;;;11.20;99.90;;;;;;5107323;28;20113;-84
2023/10/29 02:24:03;;;;;;;;;;;11.40;99.90;;;;;;5138791;28;20080;-83
2023/10/29 02:26:29;;;;;;;0.30;0.30;;;11.40;99.90;;;;;;5121327;28;19903;-88
2023/10/29 02:28:55;;;;;;;0.40;0.40;;;11.40;99.90;;;;;;5122330;28;20127;-84
2023/10/29 02:31:21;;;;;;;0.30;0.30;;;11.40;99.90;;;;;;5099863;28;20413;-85
2023/10/29 02:33:47;;;;;;;;;;;11.40;99.90;;;;;;5082263;28;20051;-84
2023/10/29 02:36:13;;;;;;;0.30;0.30;;;11.50;99.90;;;;;;5097262;28;19927;-84
2023/10/29 02:38:43;;;;;;;0.55;0.55;;;11.50;99.90;;;;;;5080653;28;20047;-84
2023/10/29 02:41:09;;;;;;;0.35;0.35;;;11.60;99.90;;;;;;5096826;28;20046;-83
2023/10/29 02:43:38;;;;;;;;;;;11.60;99.90;;;;;;5097676;28;20391;-84
2023/10/29 02:46:04;;;;;;;0.40;0.40;;;11.70;99.90;;;;;;5081064;28;20276;-83
2023/10/29 02:48:29;;;;;;;0.75;0.75;;;11.70;99.90;;;;;;5114472;28;20493;-83
2023/10/29 02:50:55;;;;;;;0.47;0.47;;;11.70;99.90;;;;;;5098002;28;20043;-83
2023/10/29 02:53:21;;;;;;;6.43;1.85;;;11.70;99.90;;;;;;5115659;28;20050;-83
2023/10/29 02:55:47;;;;;;;0.35;0.35;;;11.80;99.90;;;;;;5114783;28;20052;-84
2023/10/29 02:58:13;;;;;;;0.45;0.45;;;11.70;99.90;;;;;;5080253;28;20112;-84
2023/10/29 03:00:39;;;;;;;0.22;0.22;;;11.70;99.90;;;;;;5114517;28;20048;-84
2023/10/29 03:03:05;;;;;;;0.45;0.35;;;11.60;99.90;;;;;;5115203;28;20043;-83
2023/10/29 03:05:31;;;;;;;0.47;0.47;;;11.70;99.90;;;;;;5096598;28;20066;-83
2023/10/29 03:07:59;;;;;;;0.32;0.32;;;11.80;99.90;;;;;;5132063;28;20054;-84
2023/10/29 03:10:24;;;;;;;0.30;0.30;;;11.60;99.90;;;;;;5115046;28;20055;-84
2023/10/29 03:12:50;;;;;;;0.68;0.68;;;11.60;99.90;;;;;;5131165;28;20100;-84
2023/10/29 03:15:16;;;;;;;0.85;0.85;;;11.70;99.90;;;;;;5097087;28;20503;-84
2023/10/29 03:17:42;;;;;;;0.20;0.20;;;11.80;99.90;;;;;;5097307;28;20036;-84
2023/10/29 03:20:08;;;;;;;0.30;0.30;;;11.90;99.90;;;;;;5084904;28;20058;-84
2023/10/29 03:22:34;;;;;;;0.30;0.30;;;11.90;99.90;;;;;;5102086;28;20039;-83
2023/10/29 03:25:00;;;;;;;0.30;0.30;;;11.70;99.90;;;;;;5118167;28;20473;-84
2023/10/29 03:27:25;;;;;;;0.52;0.50;;;11.70;99.90;;;;;;5101485;28;20085;-83
2023/10/29 03:29:51;;;;;;;0.40;0.40;;;11.70;99.90;;;;;;5135747;27;20448;-84
2023/10/29 03:32:17;;;;;;;0.28;0.28;;;11.70;99.90;;;;;;5101857;28;20459;-84
2023/10/29 03:34:42;;;;;;;0.30;0.30;;;11.60;99.90;;;;;;5101319;28;20083;-84
2023/10/29 03:37:08;;;;;;;0.30;0.30;;;11.70;99.90;;;;;;5100589;28;20371;-84
2023/10/29 03:39:34;;;;;;;0.20;0.20;;;11.70;99.90;;;;;;5084294;28;20055;-84
2023/10/29 03:41:59;;;;;;;0.20;0.20;;;11.70;99.90;;;;;;5084459;28;20047;-84
2023/10/29 03:44:27;;;;;;;0.35;0.35;;;11.80;99.90;;;;;;5118146;28;20054;-83
2023/10/29 03:46:52;;;;;;;0.30;0.30;;;11.60;99.90;;;;;;5100466;28;20047;-81
2023/10/29 03:49:18;;;;;;;0.70;0.52;;;11.60;99.90;;;;;;5100154;28;20465;-82
2023/10/29 03:51:45;;;;;;;;;;;13.20;99.90;;;;;;5101190;28;20394;-83
2023/10/29 03:54:11;;;;;;;9.30;0.60;;;11.60;99.90;;;;;;5084561;28;19919;-82
2023/10/29 03:56:36;;;;;;;0.30;0.30;;;11.60;99.90;;;;;;5101038;28;20050;-83
2023/10/29 03:59:02;;;;;;;0.30;0.30;;;11.50;99.90;;;;;;5083345;28;20478;-83
2023/10/29 04:01:28;;;;;;;0.40;0.40;;;11.50;99.90;;;;;;5084549;28;20051;-83
2023/10/29 04:04:01;;;;;;;0.60;0.60;;;11.50;99.90;;;;;;5104954;28;20112;-82
2023/10/29 04:06:27;;;;;;;0.30;0.30;;;11.80;99.90;;;;;;5127257;28;20098;-83
2023/10/29 04:08:52;;;;;;;0.40;0.40;;;11.60;99.90;;;;;;5124169;28;20048;-84
2023/10/29 04:11:18;;;;;;;0.28;0.28;;;11.60;99.90;;;;;;5140306;28;20031;-84
2023/10/29 04:13:44;;;;;;;0.20;0.20;;;11.70;99.90;;;;;;5104713;28;20122;-83
2023/10/29 04:16:10;;;;;;;0.63;0.63;;;11.90;99.90;;;;;;5084029;28;20082;-83
2023/10/29 04:18:35;;;;;;;0.30;0.30;;;11.80;99.90;;;;;;5083700;28;20130;-82
2023/10/29 04:21:03;;;;;;;0.30;0.30;;;11.90;99.90;;;;;;5117885;28;20123;-83
2023/10/29 04:23:29;;;;;;;0.20;0.20;;;11.80;99.90;;;;;;5099990;28;20039;-84
2023/10/29 04:25:54;;;;;;;0.32;0.32;;;12.00;99.90;;;;;;5116425;28;20043;-83
2023/10/29 04:28:20;;;;;;;0.30;0.30;;;11.90;99.90;;;;;;5116601;28;20127;-83
2023/10/29 04:30:46;;;;;;;0.30;0.30;;;12.00;99.90;;;;;;5081471;28;20050;-83
2023/10/29 04:33:12;;;;;;;0.47;0.47;;;12.00;99.90;;;;;;5099668;28;20074;-83
2023/10/29 04:35:38;;;;;;;0.73;0.73;;;11.30;99.90;;;;;;5082468;28;20071;-82
2023/10/29 04:38:04;;;;;;;0.40;0.40;;;12.10;99.90;;;;;;5117037;28;20089;-82
2023/10/29 04:40:29;;;;;;;0.30;0.30;;;12.20;99.90;;;;;;5100363;28;20415;-84
2023/10/29 04:42:55;;;;;;;0.30;0.30;;;12.30;99.90;;;;;;5116875;28;20054;-83
2023/10/29 04:45:21;;;;;;;0.30;0.30;;;12.40;99.90;;;;;;5116579;28;20143;-83
2023/10/29 04:47:47;;;;;;;0.40;0.40;;;12.30;99.90;;;;;;5116335;28;20081;-83
2023/10/29 04:50:12;;;;;;;0.30;0.30;;;12.50;99.90;;;;;;5116804;28;20101;-84
2023/10/29 04:52:38;;;;;;;0.30;0.30;;;12.20;99.90;;;;;;5117567;28;20047;-83
2023/10/29 04:55:07;;;;;;;0.40;0.40;;;12.20;99.90;;;;;;5083662;28;20070;-84
2023/10/29 04:57:33;;;;;;;0.20;0.20;;;;;;;;;;5099723;28;20390;-82
2023/10/29 04:59:59;;;;;;;0.30;0.30;;;12.00;99.90;;;;;;5098936;28;20055;-84
2023/10/29 05:02:24;;;;;;;0.20;0.20;;;11.90;99.90;;;;;;5083044;28;20043;-83
2023/10/29 05:04:51;;;;;;;0.22;0.22;;;11.80;99.90;;;;;;5099525;28;20036;-83
2023/10/29 05:07:16;;;;;;;;;;;10.00;99.90;;;;;;5117392;28;20435;-83
2023/10/29 05:09:42;;;;;;;0.20;0.20;;;11.00;99.90;;;;;;5083445;28;19971;-82
2023/10/29 05:12:08;;;;;;;0.60;0.60;;;11.70;99.90;;;;;;5118011;28;20044;-83
2023/10/29 05:14:34;;;;;;;0.20;0.20;;;11.80;99.90;;;;;;5099484;28;20134;-83
2023/10/29 05:17:00;;;;;;;0.30;0.30;;;11.60;99.90;;;;;;5115729;28;20039;-82
2023/10/29 05:19:25;;;;;;;0.30;0.30;;;11.60;99.90;;;;;;5082341;28;20043;-83
2023/10/29 05:21:51;;;;;;;0.30;0.30;;;11.80;99.90;;;;;;5115490;27;20051;-83
2023/10/29 05:24:17;;;;;;;0.20;0.20;;;11.50;99.90;;;;;;5115952;28;20509;-84
2023/10/29 05:26:43;;;;;;;0.30;0.30;;;11.60;99.90;;;;;;5099717;28;20123;-84
2023/10/29 05:29:09;;;;;;;0.28;0.28;;;11.30;99.90;;;;;;5099749;28;20467;-83
2023/10/29 05:31:34;;;;;;;0.35;0.35;;;11.40;99.90;;;;;;5082161;28;20047;-83
2023/10/29 05:34:01;;;;;;;0.30;0.30;;;11.10;99.90;;;;;;5082679;28;20450;-83
2023/10/29 05:36:32;;;;;;;0.40;0.40;;;11.10;99.90;;;;;;5083222;28;20096;-83
2023/10/29 05:38:58;;;;;;;0.30;0.30;;;11.10;99.90;;;;;;5099177;28;20047;-83
2023/10/29 05:41:24;;;;;;;0.35;0.35;;;11.10;99.90;;;;;;5098804;28;20426;-83
2023/10/29 05:43:50;;;;;;;;;;;11.10;99.90;;;;;;5115870;28;20047;-83
2023/10/29 05:46:16;;;;;;;0.40;0.40;;;11.00;99.90;;;;;;5082190;28;19986;-83
2023/10/29 05:48:42;;;;;;;0.30;0.30;;;11.00;99.90;;;;;;5118343;28;20039;-83
2023/10/29 05:51:19;;;;;;;0.30;0.30;;;11.60;99.90;;;;;;5125411;28;20043;-83
2023/10/29 05:53:57;;;;;;;2.03;0.73;;;11.20;99.90;;;;;;5109392;23;20420;-86
2023/10/29 05:56:23;;;;;;;0.30;0.30;;;11.10;99.90;;;;;;4982286;28;20042;-86
2023/10/29 05:58:48;;;;;;;0.30;0.30;;;11.10;99.90;;;;;;4985190;28;20032;-85
2023/10/29 06:01:14;;;;;;;0.30;0.30;;;11.10;99.90;;;;;;4999425;28;20038;-83
2023/10/29 06:03:40;;;;;;;0.32;0.32;;;11.10;99.90;;;;;;4993257;28;20042;-82
2023/10/29 06:06:06;;;;;;;0.30;0.30;;;11.10;99.90;;;;;;4990633;28;20046;-84
2023/10/29 06:08:31;;;;;;;0.30;0.30;;;11.10;99.90;;;;;;5002691;28;20121;-81
2023/10/29 06:10:57;;;;;;;0.30;0.30;;;11.20;99.90;;;;;;4990558;28;20044;-83
2023/10/29 06:13:23;;;;;;;0.77;0.45;;;11.20;99.90;;;;;;4975246;28;20384;-84
2023/10/29 06:15:48;;;;;;;0.30;0.30;;;11.30;99.90;;;;;;4992731;28;20368;-83
2023/10/29 06:18:16;;;;;;;0.30;0.30;;;11.40;99.90;;;;;;4979001;28;20044;-84
2023/10/29 06:20:42;;;;;;;0.40;0.40;;;11.40;99.90;;;;;;4992357;28;20065;-83
2023/10/29 06:23:11;;;;;;;0.30;0.30;;;12.10;99.90;;;;;;5012464;28;20040;-84
2023/10/29 06:25:37;;;;;;;0.30;0.30;;;11.60;99.90;;;;;;4989195;28;20134;-83
2023/10/29 06:28:03;;;;;;;0.30;0.30;;;11.60;99.90;;;;;;4972737;28;20527;-82
2023/10/29 06:30:29;;;;;;;;;;;11.70;99.90;;;;;;5032457;28;20086;-85
2023/10/29 06:32:54;;;;;;;0.20;0.20;;;11.80;99.90;;;;;;4954096;28;20417;-87
2023/10/29 06:35:20;;;;;;;0.40;0.40;;;11.70;99.90;;;;;;4954141;28;20465;-85
2023/10/29 06:37:46;;;;;;;0.30;0.30;;;11.70;99.90;;;;;;4975207;28;20059;-85
2023/10/29 06:40:12;;;;;;;0.40;0.40;;;11.70;99.90;;;;;;4955406;28;20043;-87
2023/10/29 06:42:38;;;;;;;0.30;0.30;;;11.60;99.90;;;;;;4942340;28;20144;-84
2023/10/29 06:45:05;;;;;;;0.38;0.38;;;11.50;99.90;;;;;;4994944;28;20053;-85
2023/10/29 06:47:31;;;;;;;0.30;0.30;;;11.50;99.90;;;;;;4943759;28;20043;-86
2023/10/29 06:49:57;;;;;;;0.30;0.30;;;11.50;99.90;;;;;;4970080;28;20514;-86
2023/10/29 06:52:22;;;;;;;0.65;0.65;;;11.40;99.90;;;;;;4985155;28;20047;-82
2023/10/29 06:54:48;;;;;;;0.50;0.50;;;11.40;99.90;;;;;;5052070;28;20063;-84
2023/10/29 06:57:14;;;;;;;0.30;0.30;;;11.50;99.90;;;;;;5038160;28;20492;-86
2023/10/29 06:59:40;;;;;;;0.40;0.40;;;11.60;99.90;;;;;;4955334;28;20481;-86
2023/10/29 07:02:06;;;;;;;0.20;0.20;;;11.70;99.90;;;;;;4942166;28;20039;-85
2023/10/29 07:04:33;;;;;;;0.30;0.30;;;11.70;99.90;;;;;;4969036;28;20481;-84
2023/10/29 07:06:59;;;;;;;0.20;0.20;;;11.70;99.90;;;;;;4988010;28;20129;-84
2023/10/29 07:09:24;;;;;;;0.38;0.38;;;11.70;99.90;;;;;;4947025;28;20038;-83
2023/10/29 07:11:51;;;;;;;0.30;0.30;;;11.70;99.90;;;;;;4977221;28;20050;-82
2023/10/29 07:14:17;;;;;;;0.70;0.65;;;11.80;99.90;;;;;;4979464;28;20055;-84
2023/10/29 07:16:44;;;;;;;0.30;0.30;;;11.90;99.90;;;;;;4938826;28;20038;-83
2023/10/29 07:19:11;;;;;;;0.30;0.30;;;11.90;99.90;;;;;;4954442;28;20034;-83
2023/10/29 07:21:38;;;;;;;0.20;0.20;;;12.00;99.90;;;;;;4940468;28;20043;-83
2023/10/29 07:24:05;;;;;;;0.30;0.30;;;11.90;99.90;;;;;;4958246;28;20078;-83
2023/10/29 07:26:34;;;;;;;0.30;0.30;;;11.90;99.90;;;;;;4959647;28;20073;-82
2023/10/29 07:29:01;;;;;;;2.80;2.60;;;12.00;99.90;;;;;;4975834;28;20058;-86
2023/10/29 07:31:29;;;;;;;0.30;0.30;;;12.00;99.90;;;;;;4943160;28;20058;-86
2023/10/29 07:33:54;;;;;;;0.40;0.40;;;12.10;99.90;;;;;;4977629;28;20454;-84
2023/10/29 07:36:22;;;;;;;0.30;0.30;;;12.10;99.90;;;;;;4975024;28;20040;-86
2023/10/29 07:38:48;;;;;;;0.30;0.30;;;12.10;99.90;;;;;;4966195;28;20049;-88
2023/10/29 07:41:19;;;;;;;0.20;0.20;;;12.10;99.90;;;;;;4958158;28;20039;-86
2023/10/29 07:43:45;;;;;;;0.30;0.30;;;12.20;99.90;;;;;;4955706;28;20401;-86
2023/10/29 07:46:11;;;;;;;0.40;0.40;;;12.20;99.90;;;;;;4953896;28;20408;-84
2023/10/29 07:48:36;;;;;;;0.40;0.40;;;12.20;99.90;;;;;;4974654;28;20051;-84
2023/10/29 07:51:02;;;;;;;0.25;0.25;;;12.20;99.90;;;;;;4971313;28;20107;-83
2023/10/29 07:53:30;;;;;;;0.20;0.20;;;12.20;99.90;;;;;;4977367;28;20043;-82
2023/10/29 07:56:09;;;;;;;0.20;0.20;;;12.20;99.90;;;;;;4954260;28;20055;-86
2023/10/29 07:58:37;;;;;;;0.20;0.20;;;12.20;99.90;;;;;;4978504;28;20079;-84
2023/10/29 08:01:09;;;;;;;0.30;0.30;;;12.30;99.90;;;;;;4980366;28;20047;-85
2023/10/29 08:03:36;;;;;;;0.30;0.30;;;12.30;99.90;;;;;;4951794;28;20047;-85
2023/10/29 08:06:03;;;;;;;0.30;0.30;;;12.30;99.90;;;;;;4973703;28;20034;-83
2023/10/29 08:08:29;;;;;;;0.30;0.30;;;12.30;99.90;;;;;;5001815;28;20120;-84
2023/10/29 08:10:55;;;;;;;0.20;0.20;;;12.30;99.90;;;;;;5044147;28;20559;-84
2023/10/29 08:13:21;;;;;;;0.30;0.30;;;12.20;99.90;;;;;;4995583;28;20125;-84
2023/10/29 08:15:46;;;;;;;0.30;0.30;;;12.20;99.90;;;;;;4975592;28;20472;-83
2023/10/29 08:18:13;;;;;;;0.40;0.40;;;12.20;99.90;;;;;;4996455;28;20039;-85
2023/10/29 08:20:39;;;;;;;0.40;0.40;;;12.40;99.90;;;;;;5044394;28;20042;-85
2023/10/29 08:23:06;;;;;;;0.30;0.30;;;12.50;99.90;;;;;;5000903;28;20394;-83
2023/10/29 08:25:34;;;;;;;0.20;0.20;;;12.60;99.90;;;;;;5046157;28;20392;-83
2023/10/29 08:28:00;;;;;;;0.20;0.20;;;12.60;99.90;;;;;;5002843;28;20112;-83
2023/10/29 08:30:25;;;;;;;0.30;0.30;;;12.70;99.90;;;;;;5048689;28;20051;-85
2023/10/29 08:32:51;;;;;;;0.30;0.30;;;12.80;99.90;;;;;;4989455;28;20044;-84
2023/10/29 08:35:17;;;;;;;0.30;0.30;;;12.90;99.90;;;;;;5014779;28;20124;-85
2023/10/29 08:37:43;;;;;;;1.70;0.47;;;12.90;99.90;;;;;;4987460;28;20320;-84
2023/10/29 08:40:14;;;;;;;0.55;0.55;;;13.00;99.90;;;;;;4966782;28;20122;-84
2023/10/29 08:42:40;;;;;;;0.30;0.30;;;13.10;99.90;;;;;;4980767;28;20402;-84
2023/10/29 08:45:06;;;;;;;0.20;0.20;;;13.10;99.90;;;;;;4976882;28;20050;-86
2023/10/29 08:47:32;;;;;;;0.20;0.20;;;13.10;99.90;;;;;;5015108;28;20048;-83
2023/10/29 08:49:59;;;;;;;0.20;0.20;;;13.10;99.90;;;;;;4969508;28;20093;-83
2023/10/29 08:52:25;;;;;;;0.10;0.10;;;13.10;99.90;;;;;;4996989;28;20074;-83
2023/10/29 08:54:50;;;;;;;0.30;0.30;;;13.20;99.90;;;;;;5010680;28;20100;-79
2023/10/29 08:57:16;;;;;;;0.40;0.40;;;13.10;99.90;;;;;;4956469;28;20404;-80
2023/10/29 08:59:42;;;;;;;0.30;0.30;;;13.00;99.90;;;;;;5047077;28;20748;-83
2023/10/29 09:02:10;;;;;;;0.20;0.20;;;13.00;99.90;;;;;;5043090;28;20530;-89
2023/10/29 09:04:40;;;;;;;0.38;0.38;;;12.90;99.90;;;;;;4985070;28;20496;-83
2023/10/29 09:07:08;;;;;;;0.20;0.20;;;12.90;99.90;;;;;;4999650;28;20040;-86
2023/10/29 09:09:36;;;;;;;0.30;0.30;;;12.90;99.90;;;;;;5012999;28;20401;-89
2023/10/29 09:12:02;;;;;;;0.40;0.40;;;12.90;99.90;;;;;;5008067;28;20042;-84
2023/10/29 09:14:27;;;;;;;0.20;0.20;;;13.00;99.90;;;;;;4980089;28;20088;-82
2023/10/29 09:16:54;;;;;;;0.30;0.30;;;13.10;99.90;;;;;;5001700;28;20053;-84
2023/10/29 09:19:21;;;;;;;0.28;0.28;;;13.10;99.90;;;;;;5006400;28;20059;-83
2023/10/29 09:21:48;;;;;;;0.28;0.28;;;13.20;99.90;;;;;;4997838;28;20102;-84
2023/10/29 09:24:15;;;;;;;0.40;0.40;;;13.20;99.90;;;;;;4997057;28;20096;-87
2023/10/29 09:26:41;;;;;;;0.20;0.20;;;13.20;99.90;;;;;;5006937;28;20058;-82
2023/10/29 09:29:10;;;;;;;0.30;0.30;;;13.20;99.90;;;;;;4997425;28;20411;-81
2023/10/29 09:31:36;;;;;;;0.30;0.30;;;13.20;99.90;;;;;;4974250;28;20058;-85
2023/10/29 09:34:02;;;;;;;;;;;13.40;99.90;;;;;;4983477;28;20125;-84
2023/10/29 09:36:28;;;;;;;0.25;0.25;;;13.50;99.90;;;;;;5043429;28;19922;-83
2023/10/29 09:38:54;;;;;;;0.20;0.20;;;13.70;99.90;;;;;;4999254;28;20050;-84
2023/10/29 09:41:34;;;;;;;0.50;0.50;;;13.80;99.90;;;;;;4990746;28;20057;-84
2023/10/29 09:44:01;;;;;;;0.40;0.40;;;13.90;99.90;;;;;;5017507;28;20037;-86
2023/10/29 09:46:31;;;;;;;0.30;0.30;;;14.00;99.90;;;;;;5015650;28;20127;-85
2023/10/29 09:49:00;;;;;;;0.30;0.30;;;14.00;99.90;;;;;;5002335;28;20046;-80
2023/10/29 09:51:29;;;;;;;0.30;0.30;;;14.00;99.90;;;;;;5018268;28;20046;-82
2023/10/29 09:53:59;;;;;;;0.20;0.20;;;13.90;99.90;;;;;;5007720;28;20061;-81
2023/10/29 09:56:26;;;;;;;0.40;0.38;;;14.00;99.90;;;;;;5043538;28;20417;-83
2023/10/29 09:58:53;;;;;;;0.30;0.30;;;14.00;99.90;;;;;;4963762;28;20187;-81
2023/10/29 10:01:20;;;;;;;1.90;0.60;;;14.00;99.90;;;;;;5003510;28;20091;-85
2023/10/29 10:03:46;;;;;;;0.20;0.20;;;14.10;99.90;;;;;;5000018;28;20498;-83
2023/10/29 10:06:15;;;;;;;0.30;0.30;;;14.10;99.90;;;;;;4990613;28;20129;-84
2023/10/29 10:08:41;;;;;;;0.20;0.20;;;14.30;99.90;;;;;;4981246;28;20093;-81
2023/10/29 10:11:21;;;;;;;0.40;0.40;;;14.40;99.90;;;;;;4961676;28;20050;-83
2023/10/29 10:13:47;;;;;;;0.45;0.45;;;14.30;99.90;;;;;;4958407;28;20050;-81
2023/10/29 10:16:14;;;;;;;0.20;0.20;;;14.30;99.90;;;;;;4975900;28;20038;-85
2023/10/29 10:18:59;;;;;;;1.95;0.30;;;14.30;99.90;;;;;;4970475;28;20066;-83
2023/10/29 10:21:44;;;;;;;0.30;0.30;;;14.20;99.90;;;;;;4957748;28;20100;-83
2023/10/29 10:24:10;;;;;;;0.32;0.32;;;14.30;99.90;;;;;;4955464;28;20456;-83
2023/10/29 10:26:37;;;;;;;0.25;0.25;;;14.40;99.90;;;;;;5013329;28;20039;-84
2023/10/29 10:29:09;;;;;;;0.20;0.20;;;14.40;99.90;;;;;;5027193;28;20206;-80
2023/10/29 10:31:35;;;;;;;0.20;0.20;;;14.40;99.90;;;;;;4973769;28;20038;-81
2023/10/29 10:34:17;;;;;;;0.20;0.20;;;14.30;99.90;;;;;;5006120;28;20068;-84
2023/10/29 10:36:45;;;;;;;0.20;0.20;;;14.40;99.90;;;;;;4998674;28;20040;-81
2023/10/29 10:39:14;;;;;;;0.88;0.88;;;14.40;99.90;;;;;;4995563;28;20042;-82
2023/10/29 10:42:00;;;;;;;0.22;0.22;;;14.40;99.90;;;;;;4973018;28;20130;-86
2023/10/29 10:44:27;;;;;;;0.50;0.50;;;14.40;99.90;;;;;;5037506;28;20045;-81
2023/10/29 10:46:57;;;;;;;0.20;0.20;;;14.40;99.90;;;;;;5017420;28;20415;-83
2023/10/29 10:49:23;;;;;;;0.25;0.25;;;14.40;99.90;;;;;;5000106;28;20252;-82
2023/10/29 10:51:54;;;;;;;0.80;0.43;;;14.40;99.90;;;;;;5015016;28;20050;-83
2023/10/29 10:54:23;;;;;;;0.30;0.30;;;14.50;99.90;;;;;;5003296;28;20090;-83
2023/10/29 10:56:52;;;;;;;0.40;0.40;;;14.50;99.90;;;;;;4995845;28;20047;-83
2023/10/29 10:59:19;;;;;;;0.30;0.30;;;14.50;99.90;;;;;;4998963;28;20047;-84
2023/10/29 11:01:46;;;;;;;0.30;0.30;;;14.60;99.90;;;;;;4972076;28;20045;-84
2023/10/29 11:04:12;;;;;;;0.30;0.30;;;14.60;99.90;;;;;;4978911;28;20133;-87
2023/10/29 11:06:39;;;;;;;0.40;0.40;;;14.70;99.90;;;;;;4972259;28;20108;-81
2023/10/29 11:09:12;;;;;;;0.20;0.20;;;15.70;99.90;;;;;;4964137;28;20400;-84
2023/10/29 11:11:43;;;;;;;0.30;0.30;;;14.90;99.90;;;;;;4979834;28;20431;-83
2023/10/29 11:14:10;;;;;;;0.30;0.30;;;14.90;99.90;;;;;;4976129;28;20507;-78
2023/10/29 11:16:51;;;;;;;0.20;0.20;;;14.90;99.90;;;;;;4974890;28;20772;-81
2023/10/29 11:19:36;;;;;;;0.30;0.30;;;14.90;99.90;;;;;;5038874;28;20034;-83
2023/10/29 11:22:21;;;;;;;0.40;0.40;;;14.90;99.90;;;;;;5002248;28;20043;-85
2023/10/29 11:25:08;;;;;;;0.30;0.30;;;14.80;99.90;;;;;;4988359;28;20046;-83
2023/10/29 11:27:37;;;;;;;0.52;0.52;;;14.80;99.90;;;;;;5013665;28;20050;-84
2023/10/29 11:30:27;;;;;;;0.38;0.38;;;14.80;99.90;;;;;;4958164;28;20058;-85
2023/10/29 11:33:20;;;;;;;0.35;0.35;;;14.80;99.90;;;;;;4957990;28;20110;-83
2023/10/29 11:35:46;;;;;;;0.28;0.28;;;14.70;99.90;;;;;;4993565;28;20158;-85
2023/10/29 11:38:24;;;;;;;0.45;0.45;;;14.70;99.90;;;;;;4962905;28;20058;-84
2023/10/29 11:40:50;;;;;;;0.47;0.47;;;14.80;99.90;;;;;;4990787;28;20117;-85
2023/10/29 11:43:23;;;;;;;0.30;0.30;;;14.90;99.90;;;;;;4968771;28;20131;-83
2023/10/29 11:45:59;;;;;;;0.43;0.43;;;14.90;99.90;;;;;;4994835;28;20047;-84
2023/10/29 11:48:25;;;;;;;;;;;14.90;99.90;;;;;;4993029;28;20028;-83
2023/10/29 11:51:05;;;;;;;0.30;0.30;;;14.90;99.90;;;;;;4999714;28;19916;-82
2023/10/29 11:53:32;;;;;;;0.30;0.30;;;14.80;99.90;;;;;;5012542;28;20088;-83
2023/10/29 11:56:05;;;;;;;0.30;0.30;;;14.60;99.90;;;;;;4994340;28;20047;-84
2023/10/29 11:58:32;;;;;;;0.38;0.38;;;14.50;99.90;;;;;;5027772;28;20044;-87
2023/10/29 12:00:59;;;;;;;0.30;0.30;;;14.40;99.90;;;;;;5007459;28;20085;-82
2023/10/29 12:03:25;;;;;;;0.30;0.30;;;14.30;99.90;;;;;;5013675;28;20032;-86
2023/10/29 12:05:56;;;;;;;0.20;0.20;;;14.30;99.90;;;;;;5015913;28;20047;-81
2023/10/29 12:08:30;;;;;;;0.30;0.30;;;14.30;99.90;;;;;;5018033;28;20085;-84
2023/10/29 12:10:56;;;;;;;0.30;0.30;;;14.30;99.90;;;;;;5027612;28;20083;-83
2023/10/29 12:13:22;;;;;;;0.20;0.20;;;14.30;99.90;;;;;;5042089;28;20186;-86
2023/10/29 12:15:58;;;;;;;0.30;0.30;;;14.30;99.90;;;;;;4985931;28;20129;-85
2023/10/29 12:18:25;;;;;;;0.28;0.28;;;14.30;99.90;;;;;;4991819;28;20043;-86
2023/10/29 12:21:03;;;;;;;0.20;0.20;;;14.20;99.90;;;;;;5007751;28;20070;-81
2023/10/29 12:23:30;;;;;;;0.25;0.25;;;14.10;99.90;;;;;;5027716;28;20104;-83
2023/10/29 12:25:56;;;;;;;0.30;0.30;;;14.10;99.90;;;;;;5003523;28;20076;-84
2023/10/29 12:28:22;;;;;;;;;;;14.10;99.90;;;;;;5006294;28;20042;-83
2023/10/29 12:30:50;;;;;;;0.73;0.73;;;14.20;99.90;;;;;;4973813;28;19940;-89
2023/10/29 12:33:25;;;;;;;0.30;0.30;;;14.20;99.90;;;;;;5027534;28;20046;-84
2023/10/29 12:35:55;;;;;;;0.40;0.40;;;14.20;99.90;;;;;;5020953;28;20082;-83
2023/10/29 12:38:22;;;;;;;0.30;0.30;;;14.20;99.90;;;;;;4972303;28;20043;-86
2023/10/29 12:41:14;;;;;;;0.30;0.30;;;14.20;99.90;;;;;;4985132;28;20043;-83
2023/10/29 12:43:51;;;;;;;0.22;0.22;;;14.20;99.90;;;;;;4993001;28;20078;-85
2023/10/29 12:46:22;;;;;;;0.30;0.30;;;14.20;99.90;;;;;;4970408;28;20507;-85
2023/10/29 12:49:09;;;;;;;0.30;0.30;;;14.20;99.90;;;;;;4996912;28;20064;-83
2023/10/29 12:51:39;;;;;;;0.40;0.40;;;14.20;99.90;;;;;;4990268;28;20047;-86